Aviation Digital Data Service (ADDS)

Output produced by METARs form (0251 UTC 28 July 2016)
found at http://aviationweather.gov/adds/metars/
 
KBDL 272320Z 2800/2906 VRB05KT P6SM SKC 
     FM281800 21006KT P6SM SCT200 
     FM290300 18004KT P6SM VCSH BKN120